Campanya meteocatpedra

Dades EMA Boí (2.535 m)

?
?
Resum diari
Dades diàries de l'estació meteorològica
Temperatura mitjana 4.0 °C
Temperatura màxima 10.1 °C 14:57 TU
Temperatura mínima 0.9 °C 23:21 TU
Humitat relativa mitjana 9%
Precipitació acumulada 0.0 mm
Gruix de neu màxim 114 cm
Ratxa màxima del vent (6 m) 22.0 km/h - 126º 8:45 TU
Irradiació solar global 9.7 MJ/m2

El tram horari està expressat en Temps Universal (TU). Cal sumar una hora en horari d'hivern i dues en horari d'estiu per passar a l'hora oficial.

Boí (2.535 m)

Metadades estació meteorol´gica
Municipi La Vall de Boí
Comarca Alta Ribagorça
Altitud 2535 m
Data alta 13.11.1998
Estat actual Operativa
Dades de període
Període
TU
TM
°C
TX
°C
TN
°C
HRM
%
PPT
mm
GN
cm
VVM (6 m)
km/h
DVM (6 m)
graus
VVX (6 m)
km/h
RS
W/m2
00:00 - 00:30 2.9 3.0 2.5 7 0.0 114 5.0 102 7.9 0
00:30 - 01:00 2.1 2.9 1.6 9 0.0 114 9.0 113 11.9 0
01:00 - 01:30 2.0 2.5 1.7 9 0.0 114 7.9 117 11.5 0
01:30 - 02:00 2.1 2.8 1.5 7 0.0 114 0.7 89 6.5 0
02:00 - 02:30 2.5 3.2 2.1 7 0.0 114 2.9 121 6.5 0
02:30 - 03:00 3.1 3.4 2.9 5 0.0 114 1.8 119 6.5 0
03:00 - 03:30 3.1 3.5 2.8 5 0.0 114 4.0 121 7.9 0
03:30 - 04:00 2.6 3.1 1.7 7 0.0 114 4.0 111 9.0 0
04:00 - 04:30 2.7 3.1 2.0 7 0.0 114 2.9 113 8.6 0
04:30 - 05:00 3.3 3.9 2.7 7 0.0 114 2.9 93 9.4 0
05:00 - 05:30 2.9 3.9 2.3 8 0.0 114 9.7 109 17.6 0
05:30 - 06:00 2.5 3.1 1.9 8 0.0 114 5.0 218 16.9 0
06:00 - 06:30 1.6 2.3 1.1 9 0.0 114 0.7 231 6.1 0
06:30 - 07:00 1.4 1.7 0.9 9 0.0 114 1.8 117 9.0 0
07:00 - 07:30 1.5 2.2 0.9 9 0.0 114 2.2 123 11.5 2
07:30 - 08:00 2.9 3.4 1.1 9 0.0 114 10.4 122 15.5 52
08:00 - 08:30 4.0 4.2 3.2 8 0.0 114 12.6 124 19.1 128
08:30 - 09:00 4.1 4.3 4.1 7 0.0 114 18.4 123 22.0 205
09:00 - 09:30 4.3 4.6 4.2 7 0.0 114 13.3 124 16.2 279
09:30 - 10:00 4.8 5.6 4.4 9 0.0 114 5.4 185 16.6 342
10:00 - 10:30 5.6 5.9 5.1 9 0.0 114 2.2 239 11.2 400
10:30 - 11:00 6.2 6.9 5.3 9 0.0 114 1.1 167 6.1 438
11:00 - 11:30 7.3 7.7 6.9 9 0.0 114 0.7 280 5.8 467
11:30 - 12:00 7.3 8.1 6.7 10 0.0 114 0.7 27 5.8 482
12:00 - 12:30 7.8 8.6 7.2 13 0.0 114 0.7 305 3.6 478
12:30 - 13:00 7.1 8.9 6.3 12 0.0 114 1.1 198 6.1 460
13:00 - 13:30 8.9 9.7 8.3 10 0.0 114 0.4 203 2.5 423
13:30 - 14:00 9.1 10.0 8.4 9 0.0 114 0.4 187 4.3 378
14:00 - 14:30 8.3 9.7 6.7 10 0.0 114 1.1 145 5.4 323
14:30 - 15:00 7.9 10.1 6.9 10 0.0 114 0.4 346 2.5 254
15:00 - 15:30 7.1 9.4 6.1 10 0.0 114 1.4 138 6.8 178
15:30 - 16:00 5.1 6.4 4.6 9 0.0 114 7.9 125 11.5 97
16:00 - 16:30 4.0 4.6 3.6 10 0.0 114 5.8 124 10.4 17
16:30 - 17:00 3.7 3.9 2.9 10 0.0 114 7.2 120 9.7 0
17:00 - 17:30 3.6 4.1 2.7 10 0.0 114 6.5 119 10.4 0
17:30 - 18:00 3.7 4.0 3.4 9 0.0 114 7.9 122 11.9 0
18:00 - 18:30 3.7 4.0 3.1 8 0.0 114 3.6 131 8.6 0
18:30 - 19:00 3.1 3.4 2.5 8 0.0 114 0.0 148 1.8 0
19:00 - 19:30 2.3 2.8 1.9 8 0.0 114 0.7 346 4.7 0
19:30 - 20:00 3.0 3.2 2.7 7 0.0 114 0.7 6 4.7 0
20:00 - 20:30 3.5 3.9 3.1 7 0.0 114 0.7 122 5.4 0
20:30 - 21:00 3.7 4.1 3.4 7 0.0 114 4.7 113 6.5 0
21:00 - 21:30 3.9 4.2 3.4 7 0.0 114 5.8 110 7.2 0
21:30 - 22:00 3.3 3.9 2.7 9 0.0 114 6.5 124 8.3 0
22:00 - 22:30 2.3 2.7 1.8 12 0.0 114 8.3 129 10.4 0
22:30 - 23:00 1.9 2.1 1.6 10 0.0 114 8.6 128 12.6 0
23:00 - 23:30 1.3 1.8 0.9 9 0.0 114 3.6 115 13.0 0
23:30 - 00:00 1.5 1.8 1.0 10 0.0 114 10.8 125 20.2 0

Les dades en taronja només han passat un control de qualitat automàtic. Resta pendent la seva validació definitiva.